createdAt,value
2023-04-16T00:01:40.334Z,13.36
2023-04-16T00:04:08.240Z,12.69
2023-04-16T00:06:36.575Z,12.21
2023-04-16T00:09:04.467Z,11.83
2023-04-16T00:11:32.227Z,11.52
2023-04-16T00:14:00.070Z,11.27
2023-04-16T00:16:28.146Z,11.06
2023-04-16T00:18:55.979Z,10.85
2023-04-16T00:21:23.756Z,10.63
2023-04-16T00:23:51.558Z,10.43
2023-04-16T00:26:19.662Z,10.26
2023-04-16T00:28:48.027Z,10.13
2023-04-16T00:31:16.119Z,10.01
2023-04-16T00:33:43.972Z,10.19
2023-04-16T00:36:11.677Z,11.58
2023-04-16T00:38:39.522Z,12.90
2023-04-16T00:41:07.248Z,13.46
2023-04-16T00:43:35.078Z,12.90
2023-04-16T00:46:05.834Z,12.22
2023-04-16T00:48:34.606Z,11.72
2023-04-16T00:51:04.996Z,11.35
2023-04-16T00:53:34.192Z,11.06
2023-04-16T00:56:06.339Z,10.81
2023-04-16T00:58:34.945Z,10.58
2023-04-16T01:01:02.755Z,10.38
2023-04-16T01:03:43.405Z,10.20
2023-04-16T01:06:11.775Z,10.04
2023-04-16T01:08:40.173Z,9.88
2023-04-16T01:11:08.235Z,9.74
2023-04-16T01:13:39.368Z,9.61
2023-04-16T01:16:08.932Z,9.49
2023-04-16T01:18:37.545Z,9.37
2023-04-16T01:21:05.609Z,9.26
2023-04-16T01:23:34.254Z,9.16
2023-04-16T01:26:03.454Z,9.32
2023-04-16T01:28:31.355Z,10.73
2023-04-16T01:30:59.130Z,12.14
2023-04-16T01:33:56.500Z,12.73
2023-04-16T01:36:24.651Z,12.11
2023-04-16T01:38:52.402Z,11.47
2023-04-16T01:41:20.324Z,10.97
2023-04-16T01:43:48.109Z,10.59
2023-04-16T01:46:20.578Z,10.30
2023-04-16T01:48:48.995Z,10.07
2023-04-16T01:51:16.857Z,9.90
2023-04-16T01:53:45.839Z,9.74
2023-04-16T01:56:13.848Z,9.60
2023-04-16T01:58:47.126Z,9.46
2023-04-16T02:01:16.176Z,9.65
2023-04-16T02:03:45.335Z,11.08
2023-04-16T02:06:13.721Z,12.37
2023-04-16T02:08:41.927Z,12.91
2023-04-16T02:11:09.663Z,12.35
2023-04-16T02:13:37.565Z,11.68
2023-04-16T02:16:06.239Z,11.18
2023-04-16T02:18:57.435Z,10.78
2023-04-16T02:21:26.089Z,10.51
2023-04-16T02:23:53.853Z,10.28
2023-04-16T02:26:26.657Z,10.05
2023-04-16T02:28:55.285Z,9.84
2023-04-16T02:31:25.640Z,9.66
2023-04-16T02:33:53.428Z,9.51
2023-04-16T02:36:21.728Z,9.38
2023-04-16T02:38:49.512Z,9.26
2023-04-16T02:41:17.400Z,9.14
2023-04-16T02:43:45.389Z,9.36
2023-04-16T02:46:13.262Z,10.76
2023-04-16T02:48:41.725Z,12.02
2023-04-16T02:51:09.548Z,12.60
2023-04-16T02:53:37.485Z,12.07
2023-04-16T02:56:05.988Z,11.39
2023-04-16T02:58:33.783Z,10.89
2023-04-16T03:01:01.965Z,10.53
2023-04-16T03:03:29.919Z,10.25
2023-04-16T03:05:57.665Z,10.02
2023-04-16T03:08:25.925Z,9.84
2023-04-16T03:10:54.112Z,9.92
2023-04-16T03:13:21.859Z,11.14
2023-04-16T03:15:50.101Z,12.38
2023-04-16T03:18:17.950Z,12.85
2023-04-16T03:20:45.849Z,12.26
2023-04-16T03:23:13.669Z,11.61
2023-04-16T03:25:41.629Z,11.12
2023-04-16T03:28:09.936Z,10.74
2023-04-16T03:30:38.982Z,10.44
2023-04-16T03:33:07.108Z,10.19
2023-04-16T03:35:36.018Z,9.98
2023-04-16T03:38:04.160Z,9.77
2023-04-16T03:40:32.212Z,9.58
2023-04-16T03:43:00.495Z,9.41
2023-04-16T03:45:29.660Z,9.24
2023-04-16T03:47:57.815Z,9.09
2023-04-16T03:50:26.613Z,8.97
2023-04-16T03:52:54.537Z,9.12
2023-04-16T03:55:22.308Z,10.47
2023-04-16T03:57:50.142Z,11.79
2023-04-16T04:00:18.505Z,12.40
2023-04-16T04:02:56.188Z,11.82
2023-04-16T04:05:24.690Z,11.16
2023-04-16T04:07:52.812Z,10.69
2023-04-16T04:10:20.576Z,10.36
2023-04-16T04:12:48.361Z,10.11
2023-04-16T04:15:16.359Z,9.91
2023-04-16T04:17:44.265Z,9.72
2023-04-16T04:20:12.509Z,9.54
2023-04-16T04:22:43.454Z,9.39
2023-04-16T04:25:12.831Z,9.25
2023-04-16T04:27:40.851Z,9.34
2023-04-16T04:30:09.855Z,10.57
2023-04-16T04:32:38.039Z,11.87
2023-04-16T04:35:06.643Z,12.50
2023-04-16T04:37:34.933Z,11.95
2023-04-16T04:40:09.682Z,11.17
2023-04-16T04:42:38.104Z,10.59
2023-04-16T04:45:06.867Z,10.13
2023-04-16T04:47:35.160Z,9.78
2023-04-16T04:50:02.888Z,9.51
2023-04-16T04:52:31.281Z,9.62
2023-04-16T04:54:59.026Z,10.97
2023-04-16T04:57:26.772Z,12.26
2023-04-16T04:59:55.467Z,12.86
2023-04-16T05:02:23.859Z,12.27
2023-04-16T05:04:51.726Z,11.53
2023-04-16T05:07:19.675Z,11.02
2023-04-16T05:09:47.426Z,10.72
2023-04-16T05:12:15.248Z,10.49
2023-04-16T05:14:43.101Z,10.32
2023-04-16T05:17:11.066Z,10.20
2023-04-16T05:19:38.823Z,10.10
2023-04-16T05:22:06.740Z,10.02
2023-04-16T05:24:34.651Z,9.92
2023-04-16T05:27:02.398Z,10.14
2023-04-16T05:29:30.113Z,11.55
2023-04-16T05:31:58.065Z,12.88
2023-04-16T05:34:26.293Z,13.43
2023-04-16T05:36:54.277Z,12.83
2023-04-16T05:39:22.423Z,12.11
2023-04-16T05:41:50.365Z,11.60
2023-04-16T05:44:18.265Z,11.23
2023-04-16T05:46:46.299Z,10.93
2023-04-16T05:49:14.387Z,10.68
2023-04-16T05:51:42.361Z,10.45
2023-04-16T05:54:10.417Z,10.58
2023-04-16T05:56:38.603Z,11.85
2023-04-16T05:59:06.556Z,13.01
2023-04-16T06:01:34.514Z,13.42
2023-04-16T06:04:02.624Z,12.78
2023-04-16T06:06:30.861Z,11.96
2023-04-16T06:08:58.956Z,11.36
2023-04-16T06:11:27.624Z,10.96
2023-04-16T06:13:55.535Z,10.98
2023-04-16T06:16:23.527Z,12.23
2023-04-16T06:18:51.366Z,13.35
2023-04-16T06:21:19.291Z,13.84
2023-04-16T06:23:47.774Z,13.37
2023-04-16T06:26:16.061Z,12.69
2023-04-16T06:28:44.059Z,12.21
2023-04-16T06:31:12.023Z,11.86
2023-04-16T06:33:39.970Z,11.62
2023-04-16T06:36:07.772Z,11.40
2023-04-16T06:38:36.357Z,11.52
2023-04-16T06:41:04.594Z,12.87
2023-04-16T06:43:33.904Z,14.15
2023-04-16T06:46:01.742Z,14.75
2023-04-16T06:48:30.069Z,14.36
2023-04-16T06:50:57.978Z,13.81
2023-04-16T06:53:26.127Z,13.39
2023-04-16T06:55:54.233Z,13.08
2023-04-16T06:58:22.496Z,12.87
2023-04-16T07:00:50.513Z,12.66
2023-04-16T07:03:18.923Z,12.48
2023-04-16T07:05:47.189Z,12.32
2023-04-16T07:08:15.602Z,12.19
2023-04-16T07:10:43.983Z,12.09
2023-04-16T07:13:11.779Z,12.25
2023-04-16T07:15:39.883Z,13.38
2023-04-16T07:18:07.731Z,14.29
2023-04-16T07:20:36.513Z,14.11
2023-04-16T07:23:07.331Z,13.52
2023-04-16T07:25:35.213Z,13.12
2023-04-16T07:28:03.942Z,12.83
2023-04-16T07:30:34.776Z,12.57
2023-04-16T07:33:06.134Z,12.32
2023-04-16T07:35:34.211Z,12.11
2023-04-16T07:38:02.156Z,12.18
2023-04-16T07:40:30.069Z,13.39
2023-04-16T07:42:57.966Z,14.58
2023-04-16T07:45:25.953Z,15.19
2023-04-16T07:47:54.065Z,14.80
2023-04-16T07:50:22.731Z,14.19
2023-04-16T07:52:50.828Z,13.72
2023-04-16T07:55:18.719Z,13.44
2023-04-16T07:57:46.615Z,13.25
2023-04-16T13:02:56.264Z,24.40
2023-04-16T13:05:23.196Z,24.66
2023-04-16T13:07:49.670Z,24.86
2023-04-16T13:10:16.000Z,25.01
2023-04-16T13:12:42.398Z,25.10
2023-04-16T13:15:09.866Z,25.09
2023-04-16T13:17:36.432Z,25.18
2023-04-16T13:20:03.079Z,25.36
2023-04-16T13:22:29.824Z,25.53
2023-04-16T13:24:56.533Z,25.74
2023-04-16T13:27:23.191Z,25.90
2023-04-16T13:29:49.541Z,25.99
2023-04-16T13:32:16.663Z,26.11
2023-04-16T13:34:43.093Z,26.24
2023-04-16T13:37:09.555Z,26.31
2023-04-16T13:39:35.955Z,26.34
2023-04-16T13:42:02.320Z,26.46
2023-04-16T13:44:28.988Z,26.66
2023-04-16T13:46:56.117Z,26.78
2023-04-16T13:49:22.804Z,26.96
2023-04-16T13:51:49.206Z,27.23
2023-04-16T13:54:15.523Z,27.49
2023-04-16T13:56:41.886Z,27.74
2023-04-16T13:59:08.652Z,28.08
2023-04-16T14:01:35.395Z,28.38
2023-04-16T14:04:05.713Z,28.58
2023-04-16T14:06:33.446Z,28.84
2023-04-16T14:09:00.587Z,28.91
2023-04-16T14:11:27.091Z,28.99
2023-04-16T14:13:53.540Z,29.08
2023-04-16T14:16:20.223Z,29.20
2023-04-16T14:18:46.853Z,29.31
2023-04-16T14:21:13.206Z,29.41
2023-04-16T14:23:39.808Z,29.61
2023-04-16T14:26:06.247Z,29.89
2023-04-16T14:28:32.805Z,30.18
2023-04-16T14:30:59.134Z,30.49
2023-04-16T14:33:25.712Z,30.77
2023-04-16T14:35:52.236Z,31.01
2023-04-16T14:38:18.602Z,31.13
2023-04-16T14:40:45.041Z,31.31
2023-04-16T14:43:11.451Z,31.65
2023-04-16T14:45:38.331Z,32.11
2023-04-16T14:48:05.628Z,32.54
2023-04-16T14:50:37.173Z,32.62
2023-04-16T14:53:04.488Z,32.19
2023-04-16T14:55:31.530Z,31.83
2023-04-16T14:57:58.984Z,31.33
2023-04-16T15:00:25.606Z,31.26
2023-04-16T15:02:53.079Z,31.91
2023-04-16T15:05:19.732Z,32.82
2023-04-16T15:07:46.749Z,33.36
2023-04-16T15:10:13.518Z,33.85
2023-04-16T15:12:40.411Z,34.42
2023-04-16T15:15:07.856Z,34.65
2023-04-16T15:17:34.418Z,34.33
2023-04-16T15:20:00.984Z,33.72
2023-04-16T15:22:27.432Z,33.05
2023-04-16T15:24:53.818Z,32.40
2023-04-16T15:27:20.386Z,31.76
2023-04-16T15:29:48.773Z,30.98
2023-04-16T15:32:15.451Z,29.91
2023-04-16T15:34:42.817Z,28.88
2023-04-16T15:37:09.646Z,27.96
2023-04-16T15:39:35.998Z,27.25
2023-04-16T15:42:06.513Z,27.34
2023-04-16T15:44:34.156Z,27.35
2023-04-16T15:47:00.652Z,27.32
2023-04-16T15:49:27.093Z,27.16
2023-04-16T15:51:53.805Z,26.70
2023-04-16T15:54:21.407Z,26.70
2023-04-16T15:56:47.927Z,27.97
2023-04-16T15:59:14.319Z,29.56
2023-04-16T16:01:40.975Z,30.93
2023-04-16T16:04:08.321Z,32.08
2023-04-16T16:06:35.229Z,33.36
2023-04-16T16:09:01.975Z,34.65
2023-04-16T16:11:28.522Z,35.82
2023-04-16T16:13:54.863Z,36.71
2023-04-16T16:16:21.333Z,37.52
2023-04-16T16:18:48.149Z,37.97
2023-04-16T16:21:14.618Z,38.42
2023-04-16T16:23:41.346Z,38.80
2023-04-16T16:26:08.642Z,39.13
2023-04-16T16:28:37.153Z,39.44
2023-04-16T16:31:05.186Z,38.91
2023-04-16T16:33:31.560Z,37.21
2023-04-16T16:35:58.166Z,35.20
2023-04-16T16:38:25.239Z,33.27
2023-04-16T16:40:51.750Z,31.29
2023-04-16T16:43:18.144Z,29.53
2023-04-16T16:45:44.528Z,28.11
2023-04-16T16:48:10.984Z,26.89
2023-04-16T16:50:37.357Z,25.77
2023-04-16T16:53:03.827Z,24.79
2023-04-16T16:55:30.714Z,23.93
2023-04-16T16:57:58.286Z,23.16
2023-04-16T17:00:24.880Z,22.44
2023-04-16T17:02:51.595Z,21.82
2023-04-16T17:05:18.151Z,21.29
2023-04-16T17:07:45.098Z,20.84
2023-04-16T17:10:15.166Z,20.41
2023-04-16T17:12:41.949Z,19.90
2023-04-16T17:15:09.063Z,19.34
2023-04-16T17:17:35.784Z,18.82
2023-04-16T17:20:08.041Z,18.37
2023-04-16T17:22:35.285Z,17.99
2023-04-16T17:25:01.749Z,17.63
2023-04-16T17:27:28.789Z,17.28
2023-04-16T17:29:59.471Z,16.98
2023-04-16T17:32:26.211Z,16.78
2023-04-16T17:34:56.774Z,16.64
2023-04-16T17:37:23.331Z,16.46
2023-04-16T17:39:50.813Z,16.26
2023-04-16T17:42:17.345Z,16.08
2023-04-16T17:44:43.990Z,15.95
2023-04-16T17:47:11.156Z,15.83
2023-04-16T17:49:37.563Z,15.73
2023-04-16T17:52:04.420Z,15.64
2023-04-16T17:54:32.084Z,15.56
2023-04-16T17:56:58.698Z,15.51
2023-04-16T17:59:25.349Z,15.44
2023-04-16T18:01:51.975Z,15.38
2023-04-16T18:04:19.158Z,15.31
2023-04-16T18:06:45.995Z,15.27
2023-04-16T18:09:13.565Z,15.21
2023-04-16T18:11:39.979Z,15.17
2023-04-16T18:14:09.127Z,15.13
2023-04-16T18:16:35.616Z,15.09
2023-04-16T18:19:02.016Z,15.00
2023-04-16T18:21:29.908Z,14.93
2023-04-16T18:23:57.013Z,14.88
2023-04-16T18:26:25.395Z,14.83
2023-04-16T18:28:52.758Z,14.81
2023-04-16T18:31:21.373Z,14.80
2023-04-16T18:33:56.440Z,14.78
2023-04-16T18:36:23.968Z,14.77
2023-04-16T18:39:01.014Z,14.77
2023-04-16T18:41:29.197Z,14.76
2023-04-16T18:43:56.096Z,14.74
2023-04-16T18:46:22.552Z,14.69
2023-04-16T18:48:49.135Z,14.63
2023-04-16T18:51:16.283Z,14.59
2023-04-16T18:53:44.689Z,14.53
2023-04-16T18:56:11.333Z,14.46
2023-04-16T18:58:38.153Z,14.41
2023-04-16T19:01:09.918Z,14.40
2023-04-16T19:03:36.660Z,14.39
2023-04-16T19:06:03.985Z,14.39
2023-04-16T19:08:30.387Z,14.38
2023-04-16T19:10:57.013Z,14.36
2023-04-16T19:13:27.040Z,14.33
2023-04-16T19:15:59.036Z,14.28
2023-04-16T19:18:25.929Z,14.25
2023-04-16T19:20:58.795Z,14.21
2023-04-16T19:23:25.269Z,14.18
2023-04-16T19:25:51.700Z,14.17
2023-04-16T19:28:18.402Z,14.14
2023-04-16T19:30:45.976Z,14.14
2023-04-16T19:33:12.773Z,14.15
2023-04-16T19:35:42.218Z,14.13
2023-04-16T19:38:10.755Z,14.11
2023-04-16T19:40:37.714Z,14.09
2023-04-16T19:43:04.791Z,14.07
2023-04-16T19:45:31.377Z,14.06
2023-04-16T19:47:58.348Z,14.04
2023-04-16T19:50:24.964Z,14.05
2023-04-16T19:52:51.334Z,14.04
2023-04-16T19:55:18.394Z,14.02
2023-04-16T19:57:47.298Z,13.98
2023-04-16T20:00:14.290Z,13.94
2023-04-16T20:02:41.299Z,13.91
2023-04-16T20:05:11.721Z,13.88
2023-04-16T20:07:38.257Z,13.86
2023-04-16T20:10:05.088Z,13.85
2023-04-16T20:12:31.479Z,13.83
2023-04-16T20:14:58.146Z,13.80
2023-04-16T20:17:25.277Z,13.76
2023-04-16T20:19:51.639Z,13.72
2023-04-16T20:22:18.279Z,13.68
2023-04-16T20:24:47.772Z,13.62
2023-04-16T20:27:16.192Z,13.59
2023-04-16T20:29:42.499Z,13.55
2023-04-16T20:32:09.234Z,13.49
2023-04-16T20:34:37.337Z,13.44
2023-04-16T20:37:04.085Z,13.38
2023-04-16T20:39:33.523Z,13.32
2023-04-16T20:42:00.297Z,13.24
2023-04-16T20:44:32.473Z,13.16
2023-04-16T20:46:59.053Z,13.08
2023-04-16T20:49:25.409Z,13.01
2023-04-16T20:51:51.759Z,12.96
2023-04-16T20:54:18.264Z,13.17
2023-04-16T20:56:46.993Z,14.50
2023-04-16T20:59:13.917Z,15.79
2023-04-16T21:01:40.393Z,16.41
2023-04-16T21:04:07.197Z,15.97
2023-04-16T21:06:37.626Z,15.41
2023-04-16T21:09:05.267Z,15.00
2023-04-16T21:11:33.670Z,14.74
2023-04-16T21:14:00.559Z,14.56
2023-04-16T21:16:27.092Z,14.42
2023-04-16T21:18:54.915Z,14.28
2023-04-16T21:21:21.675Z,14.15
2023-04-16T21:23:48.508Z,14.06
2023-04-16T21:26:16.264Z,13.98
2023-04-16T21:28:42.619Z,13.89
2023-04-16T21:31:09.049Z,13.81
2023-04-16T21:33:35.507Z,13.74
2023-04-16T21:36:02.009Z,13.69
2023-04-16T21:38:28.383Z,13.66
2023-04-16T21:40:55.169Z,13.87
2023-04-16T21:43:26.372Z,15.16
2023-04-16T21:45:52.905Z,16.44
2023-04-16T21:48:20.035Z,17.03
2023-04-16T21:50:46.550Z,16.57
2023-04-16T21:53:12.858Z,16.00
2023-04-16T21:55:39.973Z,15.58
2023-04-16T21:58:06.444Z,15.27
2023-04-16T22:00:33.129Z,15.02
2023-04-16T22:02:59.661Z,14.77
2023-04-16T22:05:26.230Z,14.56
2023-04-16T22:07:52.628Z,14.38
2023-04-16T22:10:19.113Z,14.21
2023-04-16T22:12:45.845Z,14.38
2023-04-16T22:15:13.031Z,15.56
2023-04-16T22:17:40.140Z,16.62
2023-04-16T22:20:12.520Z,17.10
2023-04-16T22:22:39.961Z,16.63
2023-04-16T22:25:06.918Z,16.00
2023-04-16T22:27:33.878Z,15.52
2023-04-16T22:30:00.998Z,15.12
2023-04-16T22:32:27.525Z,14.77
2023-04-16T22:34:54.017Z,14.47
2023-04-16T22:37:20.319Z,14.24
2023-04-16T22:39:46.780Z,14.06
2023-04-16T22:42:13.131Z,14.08
2023-04-16T22:44:39.780Z,15.15
2023-04-16T22:47:06.612Z,16.18
2023-04-16T22:49:33.404Z,16.40
2023-04-16T22:52:00.644Z,15.73
2023-04-16T22:54:28.491Z,15.04
2023-04-16T22:56:56.032Z,14.56
2023-04-16T22:59:22.592Z,14.20
2023-04-16T23:01:49.503Z,13.94
2023-04-16T23:04:15.946Z,13.75
2023-04-16T23:06:42.542Z,13.89
2023-04-16T23:09:09.581Z,15.05
2023-04-16T23:11:36.105Z,16.15
2023-04-16T23:14:03.793Z,16.68
2023-04-16T23:16:30.602Z,16.19
2023-04-16T23:18:56.938Z,15.54
2023-04-16T23:21:23.363Z,15.07
2023-04-16T23:23:49.930Z,14.72
2023-04-16T23:26:16.622Z,14.45
2023-04-16T23:28:42.954Z,14.21
2023-04-16T23:31:09.331Z,14.00
2023-04-16T23:33:35.986Z,14.10
2023-04-16T23:36:02.396Z,15.27
2023-04-16T23:38:29.219Z,16.38
2023-04-16T23:40:55.572Z,16.79
2023-04-16T23:43:22.595Z,16.18
2023-04-16T23:45:49.702Z,15.47
2023-04-16T23:48:16.192Z,14.90
2023-04-16T23:50:42.549Z,14.46
2023-04-16T23:53:08.987Z,14.09
2023-04-16T23:55:35.449Z,13.76
2023-04-16T23:58:01.913Z,13.50
